Time;durP1;ratioP1;P1;durP2;ratioP2;P2;SDS_P1;SDS_P2;PMS_P1;PMS_P2;Temp;Humidity;BMP_temperature;BMP_pressure;BME280_temperature;BME280_humidity;BME280_pressure;Samples;Min_cycle;Max_cycle;Signal;HPM_P1;HPM_P2
2021/05/29 00:00:07;;;;;;;14.95;11.85;;;;;;;20.83;64.79;100091.69;466808;112;922816;-74
2021/05/29 00:01:11;;;;;;;13.29;11.41;;;;;;;20.85;64.76;100089.43;467866;111;924797;-74
2021/05/29 00:02:16;;;;;;;18.16;11.39;;;;;;;20.85;64.69;100084.72;468756;111;926608;-74
2021/05/29 00:03:22;;;;;;;22.34;10.25;;;;;;;20.84;64.56;100091.37;467881;112;926737;-72
2021/05/29 00:04:26;;;;;;;11.01;8.67;;;;;;;20.81;64.55;100083.66;466611;112;925757;-73
2021/05/29 00:05:29;;;;;;;14.46;9.83;;;;;;;20.77;64.55;100085.38;467343;112;924536;-72
2021/05/29 00:06:34;;;;;;;10.93;8.69;;;;;;;20.74;64.55;100083.18;466937;112;924525;-73
2021/05/29 00:07:38;;;;;;;10.90;8.09;;;;;;;20.69;64.61;100092.38;466871;112;926299;-72
2021/05/29 00:08:42;;;;;;;8.95;7.29;;;;;;;20.66;64.71;100090.20;467023;111;932445;-73
2021/05/29 00:09:46;;;;;;;8.32;6.74;;;;;;;20.60;64.76;100085.84;466894;112;922696;-71
2021/05/29 00:10:53;;;;;;;9.10;6.79;;;;;;;20.56;64.86;100086.72;468183;112;923647;-72
2021/05/29 00:11:57;;;;;;;14.79;5.89;;;;;;;20.53;65.02;100081.75;466502;112;924083;-71
2021/05/29 00:13:01;;;;;;;13.52;5.71;;;;;;;20.48;65.18;100088.17;467272;111;924337;-72
2021/05/29 00:14:04;;;;;;;8.69;5.46;;;;;;;20.47;65.24;100085.69;466146;112;924139;-71
2021/05/29 00:15:10;;;;;;;12.18;5.68;;;;;;;20.44;65.31;100086.28;462243;114;924111;-72
2021/05/29 00:16:15;;;;;;;7.89;5.01;;;;;;;20.44;65.34;100083.52;461972;111;922646;-72
2021/05/29 00:17:20;;;;;;;8.58;6.07;;;;;;;20.44;65.41;100077.97;468634;111;923863;-74
2021/05/29 00:18:25;;;;;;;13.12;6.14;;;;;;;20.43;65.41;100074.37;467366;111;922632;-72
2021/05/29 00:19:29;;;;;;;9.84;6.21;;;;;;;20.44;65.44;100066.89;468768;111;924016;-72
2021/05/29 00:20:33;;;;;;;6.58;5.88;;;;;;;20.43;65.55;100068.01;468645;111;923028;-73
2021/05/29 00:21:36;;;;;;;12.25;5.58;;;;;;;20.44;65.64;100069.66;466270;111;924063;-73
2021/05/29 00:22:40;;;;;;;8.21;5.30;;;;;;;20.46;65.72;100072.95;469131;111;922577;-74
2021/05/29 00:23:44;;;;;;;8.37;5.91;;;;;;;20.46;65.78;100065.47;467408;112;930451;-71
2021/05/29 00:24:48;;;;;;;7.53;6.08;;;;;;;20.48;65.80;100065.19;466109;112;922483;-71
2021/05/29 00:25:52;;;;;;;7.10;5.94;;;;;;;20.47;65.78;100060.76;466243;111;931937;-73
2021/05/29 00:26:56;;;;;;;13.60;5.96;;;;;;;20.44;65.81;100066.89;465867;112;932034;-70
2021/05/29 00:27:59;;;;;;;12.69;6.04;;;;;;;20.42;65.97;100067.18;469877;112;922490;-73
2021/05/29 00:29:03;;;;;;;9.27;7.03;;;;;;;20.41;66.13;100065.52;466974;111;930487;-73
2021/05/29 00:30:10;;;;;;;9.10;6.41;;;;;;;20.40;66.14;100059.16;461616;112;923004;-73
2021/05/29 00:31:16;;;;;;;10.88;6.75;;;;;;;20.41;66.20;100065.52;447544;116;930848;-70
2021/05/29 00:32:21;;;;;;;9.78;7.45;;;;;;;20.38;66.34;100061.41;459830;112;922880;-70
2021/05/29 00:33:26;;;;;;;11.98;7.26;;;;;;;20.39;66.41;100060.30;467653;112;922751;-72
2021/05/29 00:34:30;;;;;;;12.04;7.34;;;;;;;20.42;66.44;100058.05;467023;111;922903;-74
2021/05/29 00:35:34;;;;;;;9.46;7.76;;;;;;;20.43;66.39;100052.22;467715;111;922521;-73
2021/05/29 00:36:37;;;;;;;11.46;7.36;;;;;;;20.46;66.33;100061.88;467763;112;923009;-73
2021/05/29 00:37:41;;;;;;;9.10;7.72;;;;;;;20.49;66.33;100061.30;466743;112;922844;-74
2021/05/29 00:38:49;;;;;;;12.79;8.14;;;;;;;20.50;66.35;100060.19;469609;111;930934;-72
2021/05/29 00:39:53;;;;;;;9.08;7.23;;;;;;;20.52;66.38;100055.16;457395;114;930386;-73
2021/05/29 00:40:58;;;;;;;13.81;7.62;;;;;;;20.52;66.34;100058.77;459423;112;922650;-73
2021/05/29 00:42:02;;;;;;;9.76;7.18;;;;;;;20.52;66.32;100053.22;467263;111;923885;-73
2021/05/29 00:43:06;;;;;;;10.96;7.65;;;;;;;20.53;66.34;100052.11;467142;112;922744;-73
2021/05/29 00:44:13;;;;;;;14.37;7.70;;;;;;;20.53;66.37;100052.11;458810;113;924310;-73
2021/05/29 00:45:17;;;;;;;11.73;7.78;;;;;;;20.54;66.39;100053.77;460098;112;923676;-71
2021/05/29 00:46:21;;;;;;;8.48;7.12;;;;;;;20.54;66.43;100047.40;467015;112;922547;-72
2021/05/29 00:47:28;;;;;;;12.14;7.95;;;;;;;20.54;66.49;100053.77;465912;112;924952;-74
2021/05/29 00:48:33;;;;;;;10.20;7.39;;;;;;;20.56;66.46;100045.17;466298;111;932348;-71
2021/05/29 00:49:37;;;;;;;13.43;7.44;;;;;;;20.58;66.49;100049.28;467645;112;924056;-71
2021/05/29 00:50:48;;;;;;;8.76;6.74;;;;;;;20.58;66.43;100052.05;466565;112;925762;-73
2021/05/29 00:51:52;;;;;;;11.67;7.38;;;;;;;20.58;66.41;100052.05;467931;111;924021;-75
2021/05/29 00:52:56;;;;;;;8.76;6.88;;;;;;;20.58;66.45;100051.22;467930;112;924122;-72
2021/05/29 00:53:59;;;;;;;10.76;7.33;;;;;;;20.56;66.52;100050.71;467570;112;923883;-74
2021/05/29 00:55:06;;;;;;;9.36;6.86;;;;;;;20.54;66.65;100056.54;467555;111;924019;-71
2021/05/29 00:56:11;;;;;;;12.75;6.79;;;;;;;20.52;66.78;100047.69;467680;111;925640;-71
2021/05/29 00:57:16;;;;;;;7.58;6.25;;;;;;;20.50;66.82;100049.11;467105;111;924085;-74
2021/05/29 00:58:22;;;;;;;14.55;6.95;;;;;;;20.50;66.76;100043.57;468416;112;924122;-74
2021/05/29 00:59:26;;;;;;;10.29;6.00;;;;;;;20.50;66.77;100046.34;466291;112;924077;-73
2021/05/29 01:00:31;;;;;;;10.49;6.14;;;;;;;20.50;66.76;100046.34;466864;111;922446;-72
2021/05/29 01:01:35;;;;;;;6.49;5.73;;;;;;;20.50;66.71;100041.63;468328;111;924083;-72
2021/05/29 01:02:39;;;;;;;17.55;6.42;;;;;;;20.51;66.70;100040.48;468940;112;924582;-73
2021/05/29 01:03:43;;;;;;;9.38;6.06;;;;;;;20.52;66.60;100039.38;465828;112;923980;-72
2021/05/29 01:04:47;;;;;;;7.43;6.05;;;;;;;20.53;66.49;100038.27;465721;112;924127;-72
2021/05/29 01:05:54;;;;;;;10.12;6.28;;;;;;;20.52;66.50;100044.91;466333;111;930633;-74
2021/05/29 01:06:59;;;;;;;9.54;5.84;;;;;;;20.49;66.54;100051.05;457429;114;924449;-71
2021/05/29 01:08:03;;;;;;;12.75;5.38;;;;;;;20.49;66.55;100044.69;458345;112;924113;-72
2021/05/29 01:09:07;;;;;;;10.88;6.20;;;;;;;20.47;66.61;100042.20;467243;111;924046;-72
2021/05/29 01:10:12;;;;;;;7.98;5.32;;;;;;;20.47;66.68;100035.83;462753;114;926270;-71
2021/05/29 01:11:16;;;;;;;8.62;5.74;;;;;;;20.48;66.68;100037.48;463003;111;923118;-72
2021/05/29 01:12:19;;;;;;;6.28;5.65;;;;;;;20.49;66.62;100037.20;467549;112;931975;-72
2021/05/29 01:13:29;;;;;;;18.05;6.08;;;;;;;20.51;66.52;100043.26;466860;111;922587;-72
2021/05/29 01:14:29;;;;;;;12.55;5.38;;;;;;;20.52;66.47;100041.31;466684;112;924063;-72
2021/05/29 01:16:56;;;;;;;6.30;5.56;;;;;;;20.55;66.29;100044.34;467738;111;924518;-72
2021/05/29 01:18:00;;;;;;;8.45;6.16;;;;;;;20.57;66.22;100046.80;466060;111;924735;-73
2021/05/29 01:19:05;;;;;;;10.55;5.70;;;;;;;20.57;66.11;100038.48;467931;111;925277;-73
2021/05/29 01:20:10;;;;;;;9.22;6.28;;;;;;;20.56;66.00;100040.46;467460;112;922458;-73
2021/05/29 01:21:14;;;;;;;11.76;5.28;;;;;;;20.56;66.01;100039.63;467611;112;922494;-73
2021/05/29 01:22:35;;;;;;;9.19;5.50;;;;;;;20.55;66.12;100035.20;460399;113;922475;-72
2021/05/29 01:23:40;;;;;;;8.57;5.38;;;;;;;20.53;66.23;100034.66;456399;112;923166;-72
2021/05/29 01:24:44;;;;;;;7.96;5.22;;;;;;;20.49;66.33;100033.61;469851;112;922882;-71
2021/05/29 01:25:50;;;;;;;12.71;5.56;;;;;;;20.47;66.42;100044.14;466432;112;923198;-75
2021/05/29 01:26:54;;;;;;;6.90;5.12;;;;;;;20.43;66.55;100040.31;466413;111;924122;-72
2021/05/29 01:28:15;;;;;;;8.72;4.50;;;;;;;20.39;66.69;100040.09;467542;112;924150;-72
2021/05/29 01:29:19;;;;;;;7.48;4.51;;;;;;;20.35;66.84;100036.23;469563;112;931800;-71
2021/05/29 01:30:24;;;;;;;6.68;4.26;;;;;;;20.31;66.92;100041.53;467311;112;923216;-73
2021/05/29 01:31:30;;;;;;;7.19;4.58;;;;;;;20.27;66.95;100040.45;467209;112;925366;-73
2021/05/29 01:32:33;;;;;;;9.45;4.88;;;;;;;20.24;67.02;100041.02;459797;114;922488;-76
2021/05/29 01:33:38;;;;;;;10.41;4.90;;;;;;;20.24;67.08;100038.24;460458;112;922788;-72
2021/05/29 01:34:41;;;;;;;7.56;4.84;;;;;;;20.24;67.15;100035.48;467749;111;922662;-74
2021/05/29 01:35:46;;;;;;;8.17;4.87;;;;;;;20.26;67.23;100032.42;466804;112;923566;-72
2021/05/29 01:36:50;;;;;;;7.06;4.75;;;;;;;20.27;67.24;100034.08;461096;112;922659;-72
2021/05/29 01:37:53;;;;;;;7.06;5.17;;;;;;;20.29;67.21;100035.42;462807;112;922590;-72
2021/05/29 01:38:59;;;;;;;5.96;4.19;;;;;;;20.32;67.13;100034.89;467853;111;930469;-72
2021/05/29 01:40:06;;;;;;;8.02;4.46;;;;;;;20.34;67.04;100040.94;457477;114;923172;-73
2021/05/29 01:41:12;;;;;;;6.11;4.66;;;;;;;20.36;66.99;100030.41;459008;112;922674;-72
2021/05/29 01:44:02;;;;;;;4.96;4.16;;;;;;;20.33;66.78;100028.23;462640;111;922473;-74
2021/05/29 01:45:08;;;;;;;6.37;4.65;;;;;;;20.25;66.80;100028.83;467095;111;923089;-72
2021/05/29 01:46:14;;;;;;;7.98;5.14;;;;;;;20.22;66.83;100025.83;466976;112;922992;-73
2021/05/29 01:47:18;;;;;;;7.76;4.67;;;;;;;20.17;66.90;100025.88;467554;111;922546;-72
2021/05/29 01:48:22;;;;;;;7.64;5.08;;;;;;;20.14;66.99;100029.21;466058;112;922936;-73
2021/05/29 01:49:25;;;;;;;8.18;4.30;;;;;;;20.11;67.09;100025.11;468649;112;930428;-73
2021/05/29 01:50:30;;;;;;;6.56;4.67;;;;;;;20.10;67.16;100026.21;467089;112;922389;-73
2021/05/29 01:51:34;;;;;;;6.29;4.95;;;;;;;20.09;67.33;100035.62;465298;113;922632;-73
2021/05/29 01:52:46;;;;;;;7.57;4.83;;;;;;;20.11;67.38;100032.58;453760;116;925458;-72
2021/05/29 01:53:52;;;;;;;5.45;4.41;;;;;;;20.13;67.41;100024.79;455441;113;924693;-72
2021/05/29 01:54:56;;;;;;;8.21;4.71;;;;;;;20.14;67.35;100021.73;462434;113;924972;-72
2021/05/29 01:56:01;;;;;;;6.29;4.41;;;;;;;20.16;67.36;100029.77;462046;113;927500;-73
2021/05/29 01:57:05;;;;;;;7.45;4.83;;;;;;;20.17;67.36;100025.88;463831;113;923780;-72
2021/05/29 01:58:09;;;;;;;9.66;5.18;;;;;;;20.18;67.32;100025.56;462607;113;925401;-73
2021/05/29 01:59:13;;;;;;;7.43;4.74;;;;;;;20.19;67.26;100029.98;462539;113;922398;-71
2021/05/29 02:00:21;;;;;;;6.86;4.29;;;;;;;20.20;67.25;100028.88;453227;116;931989;-71
2021/05/29 02:01:25;;;;;;;5.37;4.37;;;;;;;20.20;67.26;100026.11;455096;113;926622;-71
2021/05/29 02:02:28;;;;;;;10.09;4.83;;;;;;;20.19;67.17;100021.69;463464;113;924548;-72
2021/05/29 02:03:32;;;;;;;12.03;5.10;;;;;;;20.18;67.13;100025.56;463271;113;930480;-71
2021/05/29 02:04:36;;;;;;;9.60;5.43;;;;;;;20.16;67.11;100021.45;463302;113;932060;-73
2021/05/29 02:05:40;;;;;;;7.48;5.34;;;;;;;20.13;67.20;100019.25;462686;113;924139;-71
2021/05/29 02:06:44;;;;;;;6.86;5.15;;;;;;;20.10;67.29;100017.91;463950;113;934091;-72
2021/05/29 02:07:48;;;;;;;10.53;5.52;;;;;;;20.10;67.36;100012.38;465102;113;924296;-73
2021/05/29 02:08:52;;;;;;;9.95;5.77;;;;;;;20.10;67.43;100015.14;464403;113;932253;-71
2021/05/29 02:09:55;;;;;;;9.77;5.63;;;;;;;20.08;67.44;100014.59;463421;113;924092;-72
2021/05/29 02:11:00;;;;;;;7.64;5.35;;;;;;;20.06;67.51;100016.85;465415;113;930482;-72
2021/05/29 02:12:04;;;;;;;6.89;4.99;;;;;;;20.06;67.57;100014.08;465109;113;927019;-72
2021/05/29 02:13:14;;;;;;;9.29;5.35;;;;;;;20.07;67.70;100014.91;464072;113;924096;-72
2021/05/29 02:14:18;;;;;;;7.07;5.09;;;;;;;20.07;67.77;100014.91;463593;113;924028;-73
2021/05/29 02:15:28;;;;;;;7.94;5.02;;;;;;;20.08;67.85;100011.83;464825;113;932001;-72
2021/05/29 02:16:33;;;;;;;9.54;4.61;;;;;;;20.09;67.88;100016.25;466083;113;922503;-70
2021/05/29 02:17:37;;;;;;;7.93;4.41;;;;;;;20.10;67.89;100011.55;462149;113;924110;-74
2021/05/29 02:18:42;;;;;;;7.13;5.21;;;;;;;20.11;67.93;100019.56;461150;113;933001;-72
2021/05/29 02:19:46;;;;;;;6.40;5.12;;;;;;;20.13;67.94;100020.08;461188;113;926722;-72
2021/05/29 02:20:54;;;;;;;6.95;5.13;;;;;;;20.15;67.90;100015.09;461155;113;932062;-70
2021/05/29 02:21:59;;;;;;;10.22;5.48;;;;;;;20.19;67.83;100026.39;462209;113;932225;-71
2021/05/29 02:23:02;;;;;;;8.83;5.36;;;;;;;20.23;67.78;100021.95;457472;114;925488;-72
2021/05/29 02:24:06;;;;;;;6.79;5.40;;;;;;;20.26;67.66;100018.58;458323;113;924566;-70
2021/05/29 02:25:11;;;;;;;8.88;4.59;;;;;;;20.29;67.59;100018.81;463104;113;924084;-71
2021/05/29 02:26:18;;;;;;;7.52;4.31;;;;;;;20.32;67.48;100017.45;463321;112;932016;-74
2021/05/29 02:27:22;;;;;;;7.87;4.56;;;;;;;20.34;67.41;100016.02;463565;113;924448;-71
2021/05/29 02:28:26;;;;;;;5.75;5.09;;;;;;;20.38;67.29;100011.57;462417;113;922840;-71
2021/05/29 02:29:30;;;;;;;6.06;4.91;;;;;;;20.39;67.21;100018.77;463767;113;924054;-71
2021/05/29 02:30:36;;;;;;;10.55;6.52;;;;;;;20.43;67.23;100018.16;464081;113;931943;-71
2021/05/29 02:31:39;;;;;;;8.34;5.05;;;;;;;20.44;67.22;100015.11;464119;113;923748;-72
2021/05/29 02:32:44;;;;;;;7.25;5.09;;;;;;;20.47;67.15;100010.91;464467;113;924504;-73
2021/05/29 02:33:48;;;;;;;5.75;4.69;;;;;;;20.50;67.07;100013.94;464805;113;925117;-71
2021/05/29 02:34:52;;;;;;;8.36;4.85;;;;;;;20.52;66.98;100010.84;464849;113;924412;-71
2021/05/29 02:35:57;;;;;;;8.14;4.52;;;;;;;20.53;66.96;100018.05;454142;113;924653;-70
2021/05/29 02:37:02;;;;;;;8.69;4.76;;;;;;;20.53;66.84;100018.05;455209;113;924013;-72
2021/05/29 02:38:08;;;;;;;7.10;4.62;;;;;;;20.49;66.77;100006.73;465969;113;924137;-71
2021/05/29 02:39:11;;;;;;;8.23;4.72;;;;;;;20.48;66.83;100015.34;465614;113;922749;-70
2021/05/29 02:40:16;;;;;;;6.42;4.04;;;;;;;20.45;66.89;100015.94;464939;113;922615;-70
2021/05/29 02:41:19;;;;;;;7.60;3.77;;;;;;;20.42;67.01;100008.20;461333;113;922964;-71
2021/05/29 02:42:23;;;;;;;6.98;4.45;;;;;;;20.37;67.01;100011.85;461184;113;922501;-71
2021/05/29 02:43:27;;;;;;;8.10;3.35;;;;;;;20.34;67.08;100007.71;463338;113;922770;-73
2021/05/29 02:44:31;;;;;;;9.62;3.91;;;;;;;20.31;67.16;100011.08;461952;113;930410;-71
2021/05/29 02:45:35;;;;;;;5.56;3.86;;;;;;;20.28;67.29;100003.34;463440;113;922930;-71
2021/05/29 02:46:39;;;;;;;5.03;3.90;;;;;;;20.28;67.29;100003.34;463150;113;922866;-73
2021/05/29 02:47:42;;;;;;;6.69;4.19;;;;;;;20.29;67.32;100007.73;463281;113;930521;-73
2021/05/29 02:48:46;;;;;;;7.74;3.68;;;;;;;20.31;67.28;100010.22;463325;113;930533;-72
2021/05/29 02:49:50;;;;;;;6.69;3.97;;;;;;;20.29;67.28;100004.97;463190;113;930511;-71
2021/05/29 02:50:54;;;;;;;6.81;3.47;;;;;;;20.29;67.16;100004.97;456593;113;930574;-72
2021/05/29 02:51:58;;;;;;;5.45;3.60;;;;;;;20.27;67.13;100003.63;461546;112;922648;-72
2021/05/29 02:53:03;;;;;;;3.88;3.42;;;;;;;20.23;67.15;100006.14;466945;111;922831;-70
2021/05/29 02:54:08;;;;;;;4.38;3.41;;;;;;;20.22;67.28;100007.28;468585;112;922985;-73
2021/05/29 02:55:15;;;;;;;11.62;3.49;;;;;;;20.23;67.37;100006.14;468622;112;930798;-71
2021/05/29 02:56:19;;;;;;;7.18;3.22;;;;;;;20.25;67.41;100014.16;467811;111;930505;-72
2021/05/29 02:57:23;;;;;;;4.19;3.29;;;;;;;20.26;67.40;100011.10;467150;111;922456;-71
2021/05/29 02:58:27;;;;;;;6.69;3.37;;;;;;;20.27;67.39;100007.22;467913;111;932294;-73
2021/05/29 02:59:32;;;;;;;7.13;3.54;;;;;;;20.32;67.28;100011.91;466596;111;931938;-71
2021/05/29 03:00:41;;;;;;;7.67;3.03;;;;;;;20.32;67.09;100007.20;465737;111;923898;-72
2021/05/29 03:01:45;;;;;;;8.60;3.68;;;;;;;20.32;67.04;100009.14;468834;111;924136;-73
2021/05/29 03:02:49;;;;;;;5.01;3.25;;;;;;;20.29;66.85;100007.73;467947;112;924430;-73
2021/05/29 03:03:53;;;;;;;7.14;3.25;;;;;;;20.27;66.89;100007.22;465826;111;925707;-72
2021/05/29 03:04:59;;;;;;;5.96;2.91;;;;;;;20.27;67.02;100009.16;466911;112;923804;-71
2021/05/29 03:06:03;;;;;;;5.72;2.97;;;;;;;20.28;67.09;100008.05;467632;111;930650;-73
2021/05/29 03:07:08;;;;;;;4.71;4.04;;;;;;;20.27;66.92;100006.39;467316;111;925737;-74
2021/05/29 03:08:14;;;;;;;9.15;3.16;;;;;;;20.26;66.88;100013.87;467791;111;923426;-72
2021/05/29 03:09:17;;;;;;;5.99;2.86;;;;;;;20.24;66.90;100013.33;466429;111;925902;-69
2021/05/29 03:10:23;;;;;;;5.69;3.51;;;;;;;20.23;66.92;100011.67;467456;111;925652;-72
2021/05/29 03:11:38;;;;;;;13.67;4.07;;;;;;;20.22;66.91;100007.28;468859;112;922561;-72
2021/05/29 03:12:41;;;;;;;5.90;3.53;;;;;;;20.20;66.88;100012.27;469008;112;926132;-72
2021/05/29 03:13:45;;;;;;;6.92;4.08;;;;;;;20.18;66.97;100006.19;466901;111;925513;-72
2021/05/29 03:14:50;;;;;;;6.88;4.14;;;;;;;20.17;67.07;100009.27;466472;111;922962;-72
2021/05/29 03:15:54;;;;;;;10.08;4.10;;;;;;;20.15;67.12;100006.78;460703;113;924062;-71
2021/05/29 03:16:57;;;;;;;9.24;3.85;;;;;;;20.15;67.13;100012.33;461020;112;923560;-71
2021/05/29 03:18:04;;;;;;;9.12;4.71;;;;;;;20.14;67.17;100015.38;466766;111;924902;-73
2021/05/29 03:19:08;;;;;;;6.53;3.97;;;;;;;20.11;67.21;100016.80;466838;111;932170;-72
2021/05/29 03:20:16;;;;;;;9.08;4.48;;;;;;;20.09;67.22;100018.20;468208;112;926359;-71
2021/05/29 03:21:20;;;;;;;9.40;4.09;;;;;;;20.08;67.30;100022.07;467573;112;924248;-71
2021/05/29 03:22:24;;;;;;;6.18;3.47;;;;;;;20.06;67.42;100014.08;468021;112;924467;-72
2021/05/29 03:23:29;;;;;;;7.21;4.21;;;;;;;20.06;67.51;100016.85;467204;111;924728;-71
2021/05/29 03:24:32;;;;;;;10.81;4.51;;;;;;;20.07;67.58;100012.14;468038;112;925404;-72
2021/05/29 03:25:36;;;;;;;4.99;4.05;;;;;;;20.07;67.67;100015.70;466638;112;924119;-72
2021/05/29 03:26:42;;;;;;;6.60;4.59;;;;;;;20.07;67.62;100012.94;466300;112;931993;-71
2021/05/29 03:27:49;;;;;;;5.27;4.23;;;;;;;20.06;67.62;100011.31;467710;112;924546;-73
2021/05/29 03:28:52;;;;;;;5.89;4.40;;;;;;;20.06;67.67;100011.31;467222;111;924053;-74
2021/05/29 03:29:56;;;;;;;8.05;4.17;;;;;;;20.04;67.78;100018.24;466182;112;924532;-72
2021/05/29 03:31:00;;;;;;;7.28;4.04;;;;;;;20.01;67.91;100014.13;464409;112;924166;-72
2021/05/29 03:32:04;;;;;;;7.69;3.88;;;;;;;19.99;68.00;100005.28;467394;112;924844;-72
2021/05/29 03:33:08;;;;;;;5.19;3.89;;;;;;;19.97;68.18;100013.04;466978;112;932452;-71
2021/05/29 03:34:12;;;;;;;4.87;3.61;;;;;;;19.95;68.30;100018.05;466545;112;925010;-72
2021/05/29 03:35:16;;;;;;;5.35;4.23;;;;;;;19.93;68.40;100014.74;467910;111;922560;-72
2021/05/29 03:36:22;;;;;;;8.44;4.28;;;;;;;19.91;68.47;100026.09;466904;111;924641;-72
2021/05/29 03:37:25;;;;;;;8.32;3.70;;;;;;;19.90;68.60;100021.67;467051;112;922583;-73
2021/05/29 03:38:29;;;;;;;3.94;3.46;;;;;;;19.89;68.69;100020.05;467344;112;924077;-75
2021/05/29 03:39:32;;;;;;;6.25;3.99;;;;;;;19.90;68.77;100021.67;467434;111;925342;-74
2021/05/29 03:40:38;;;;;;;4.44;3.88;;;;;;;19.93;68.82;100023.87;467962;111;931925;-72
2021/05/29 03:41:42;;;;;;;7.15;4.07;;;;;;;19.96;68.85;100025.22;466822;112;924018;-71
2021/05/29 03:42:46;;;;;;;17.73;4.83;;;;;;;20.00;68.75;100023.55;467405;112;925634;-72
2021/05/29 03:43:50;;;;;;;9.28;3.67;;;;;;;20.03;68.71;100024.89;467884;111;932076;-72
2021/05/29 03:44:54;;;;;;;8.72;4.17;;;;;;;20.04;68.72;100024.61;466770;111;932919;-72
2021/05/29 03:45:58;;;;;;;6.89;3.79;;;;;;;20.08;68.74;100025.67;467614;112;924519;-72
2021/05/29 03:47:02;;;;;;;10.84;4.29;;;;;;;20.17;68.43;100021.17;468001;112;930692;-73
2021/05/29 03:48:06;;;;;;;4.78;3.42;;;;;;;20.17;68.43;100021.17;466794;111;922430;-71
2021/05/29 03:49:10;;;;;;;6.03;3.41;;;;;;;20.23;68.39;100027.48;467459;111;922417;-73
2021/05/29 03:50:18;;;;;;;8.66;3.51;;;;;;;20.25;68.25;100023.29;466958;112;930638;-72
2021/05/29 03:51:21;;;;;;;9.83;3.67;;;;;;;20.29;68.15;100018.81;467392;112;922592;-72
2021/05/29 03:52:25;;;;;;;6.14;3.75;;;;;;;20.33;67.95;100017.16;465820;111;922594;-71
2021/05/29 03:53:29;;;;;;;5.33;3.69;;;;;;;20.37;67.79;100017.39;466478;111;923025;-69
2021/05/29 03:54:33;;;;;;;5.26;3.20;;;;;;;20.40;67.65;100025.92;466689;112;930449;-73
2021/05/29 03:55:37;;;;;;;4.61;3.11;;;;;;;20.43;67.58;100020.93;467677;112;930305;-72
2021/05/29 03:56:42;;;;;;;5.86;3.09;;;;;;;20.47;67.55;100024.76;467516;111;923612;-71
2021/05/29 03:57:46;;;;;;;6.64;3.26;;;;;;;20.49;67.46;100028.06;467872;111;922438;-71
2021/05/29 03:58:51;;;;;;;9.81;3.29;;;;;;;20.54;67.38;100020.53;468228;111;922714;-72
2021/05/29 03:59:54;;;;;;;8.62;3.16;;;;;;;20.58;67.31;100029.89;467371;112;930489;-73
2021/05/29 04:00:59;;;;;;;7.35;3.64;;;;;;;20.64;67.16;100023.17;459900;112;922995;-72
2021/05/29 04:02:03;;;;;;;5.79;3.18;;;;;;;20.68;66.92;100026.17;460552;111;930459;-72
2021/05/29 04:03:07;;;;;;;7.02;3.34;;;;;;;20.71;66.73;100029.20;467301;112;922572;-72
2021/05/29 04:04:11;;;;;;;9.14;3.47;;;;;;;20.77;66.58;100032.73;467130;112;922830;-71
2021/05/29 04:05:16;;;;;;;6.09;3.24;;;;;;;20.81;66.51;100031.02;467773;111;922969;-73
2021/05/29 04:06:20;;;;;;;7.39;4.33;;;;;;;20.88;66.17;100033.44;466681;111;923033;-72
2021/05/29 04:07:23;;;;;;;8.46;3.51;;;;;;;20.88;66.05;100031.48;468420;112;922455;-71
2021/05/29 04:08:29;;;;;;;6.19;3.33;;;;;;;20.88;66.05;100031.48;468287;112;933519;-71
2021/05/29 04:09:34;;;;;;;11.83;3.52;;;;;;;20.94;65.94;100035.85;458773;113;924035;-70
2021/05/29 04:10:43;;;;;;;6.39;3.42;;;;;;;20.97;65.95;100042.73;459715;112;924567;-72
2021/05/29 04:11:48;;;;;;;6.96;3.36;;;;;;;21.01;65.79;100038.23;457760;114;922636;-70
2021/05/29 04:12:54;;;;;;;9.05;3.65;;;;;;;21.05;65.61;100036.55;459496;112;923999;-73
2021/05/29 04:13:58;;;;;;;10.02;3.87;;;;;;;21.10;65.51;100039.25;466143;111;931904;-73
2021/05/29 04:15:01;;;;;;;15.85;4.67;;;;;;;21.14;65.30;100038.38;467258;112;924266;-72
2021/05/29 04:16:05;;;;;;;9.26;4.50;;;;;;;21.20;65.04;100039.97;467330;111;923162;-70
2021/05/29 04:17:11;;;;;;;8.83;4.85;;;;;;;21.25;64.78;100039.06;468384;112;932010;-71
2021/05/29 04:18:14;;;;;;;11.91;4.79;;;;;;;21.30;64.53;100040.94;467036;111;931964;-73
2021/05/29 04:19:17;;;;;;;9.51;3.93;;;;;;;21.33;64.40;100034.81;466552;111;924024;-71
2021/05/29 04:20:25;;;;;;;5.92;3.66;;;;;;;21.35;64.31;100040.86;467085;112;924496;-72
2021/05/29 04:21:28;;;;;;;9.59;4.57;;;;;;;21.38;64.25;100043.88;468275;112;924556;-72
2021/05/29 04:22:33;;;;;;;12.39;3.95;;;;;;;21.40;64.19;100043.56;468199;111;924041;-71
2021/05/29 04:23:37;;;;;;;16.16;4.15;;;;;;;21.41;64.24;100043.27;466797;111;925790;-70
2021/05/29 04:24:41;;;;;;;11.22;4.05;;;;;;;21.42;64.12;100044.09;467795;111;923087;-72
2021/05/29 04:25:44;;;;;;;10.00;3.79;;;;;;;21.40;63.98;100057.42;457451;114;923886;-72
2021/05/29 04:26:48;;;;;;;5.91;4.34;;;;;;;21.38;63.90;100046.66;458364;112;924171;-71
2021/05/29 04:27:52;;;;;;;6.28;4.57;;;;;;;21.39;63.88;100051.05;466863;111;923986;-70
2021/05/29 04:28:56;;;;;;;6.46;4.42;;;;;;;21.41;63.77;100053.53;464216;112;923417;-73
2021/05/29 04:30:00;;;;;;;16.13;4.64;;;;;;;21.42;63.66;100052.42;465001;112;930594;-72
2021/05/29 04:31:04;;;;;;;8.82;5.06;;;;;;;21.43;63.59;100052.12;468832;111;927008;-72
2021/05/29 04:32:08;;;;;;;17.46;5.73;;;;;;;21.45;63.52;100054.58;468140;112;924085;-71
2021/05/29 04:33:14;;;;;;;16.88;4.94;;;;;;;21.46;63.49;100047.91;467859;112;923653;-74
2021/05/29 04:34:17;;;;;;;13.06;5.00;;;;;;;21.47;63.59;100052.34;467361;112;924057;-72
2021/05/29 04:35:21;;;;;;;6.72;4.41;;;;;;;21.47;63.40;100055.11;467479;111;924406;-70
2021/05/29 04:36:27;;;;;;;11.54;4.81;;;;;;;21.47;63.17;100055.11;466812;112;924528;-71
2021/05/29 04:37:31;;;;;;;7.68;3.54;;;;;;;21.45;62.98;100047.08;467397;111;922508;-71
2021/05/29 04:38:35;;;;;;;11.04;4.09;;;;;;;21.45;63.00;100046.26;467424;111;926738;-74
2021/05/29 04:39:39;;;;;;;9.04;4.47;;;;;;;21.44;63.07;100052.95;468729;111;924010;-73
2021/05/29 04:40:44;;;;;;;16.06;4.28;;;;;;;21.43;63.00;100051.30;458386;114;923029;-74
2021/05/29 04:41:48;;;;;;;12.96;4.19;;;;;;;21.44;63.00;100051.01;458154;112;924105;-71
2021/05/29 04:42:52;;;;;;;10.34;4.22;;;;;;;21.45;63.01;100058.18;468143;112;931947;-74
2021/05/29 04:43:56;;;;;;;11.05;3.61;;;;;;;21.45;63.04;100057.35;467491;111;924301;-72
2021/05/29 04:45:00;;;;;;;12.94;3.50;;;;;;;21.44;62.83;100052.95;467177;111;924015;-72
2021/05/29 04:46:04;;;;;;;6.09;3.76;;;;;;;21.41;62.77;100050.77;466648;112;925614;-71
2021/05/29 04:47:08;;;;;;;6.71;3.47;;;;;;;21.38;62.94;100054.15;468348;112;925526;-73
2021/05/29 04:48:11;;;;;;;7.21;3.64;;;;;;;21.36;63.11;100053.61;466513;111;932686;-71
2021/05/29 04:49:17;;;;;;;14.09;3.74;;;;;;;21.33;63.32;100059.77;466265;112;926460;-74
2021/05/29 04:50:24;;;;;;;6.46;3.13;;;;;;;21.28;63.51;100052.31;468303;112;922473;-73
2021/05/29 04:51:27;;;;;;;7.98;3.27;;;;;;;21.24;63.81;100054.05;466607;112;924147;-71
2021/05/29 04:52:31;;;;;;;5.27;3.16;;;;;;;21.21;64.01;100060.20;466270;111;923833;-71
2021/05/29 04:53:34;;;;;;;10.94;3.02;;;;;;;21.19;64.23;100057.72;469034;111;931946;-71
2021/05/29 04:54:39;;;;;;;11.14;8.63;;;;;;;21.19;64.33;100059.66;467889;112;924574;-73
2021/05/29 04:55:44;;;;;;;9.14;4.41;;;;;;;21.19;64.47;100062.44;468161;112;922700;-71
2021/05/29 04:56:49;;;;;;;8.66;3.97;;;;;;;21.20;64.70;100050.23;468016;112;923296;-72
2021/05/29 04:57:52;;;;;;;8.22;3.48;;;;;;;21.23;64.77;100051.59;468945;111;922484;-74
2021/05/29 04:58:56;;;;;;;9.22;3.58;;;;;;;21.25;64.82;100052.09;467546;112;922645;-72